createdAt,value
2023-03-29T00:00:09.921Z,6.40
2023-03-29T00:02:39.604Z,6.40
2023-03-29T00:05:08.462Z,6.30
2023-03-29T00:07:36.521Z,6.30
2023-03-29T00:10:05.794Z,6.30
2023-03-29T00:12:34.370Z,6.30
2023-03-29T00:15:02.343Z,6.30
2023-03-29T00:17:30.336Z,6.30
2023-03-29T00:19:59.767Z,6.30
2023-03-29T00:22:27.800Z,6.30
2023-03-29T00:24:56.128Z,6.30
2023-03-29T00:28:20.033Z,6.20
2023-03-29T00:30:48.016Z,6.30
2023-03-29T00:33:15.964Z,6.20
2023-03-29T00:35:46.273Z,6.20
2023-03-29T00:38:14.259Z,6.20
2023-03-29T00:40:44.129Z,6.20
2023-03-29T00:43:13.095Z,6.20
2023-03-29T00:45:41.502Z,6.20
2023-03-29T00:48:12.252Z,6.20
2023-03-29T00:50:43.789Z,6.20
2023-03-29T00:53:17.426Z,6.20
2023-03-29T00:55:52.498Z,6.20
2023-03-29T00:58:25.348Z,6.20
2023-03-29T01:00:58.954Z,6.20
2023-03-29T01:03:33.052Z,6.20
2023-03-29T01:06:06.052Z,6.30
2023-03-29T01:08:40.500Z,6.30
2023-03-29T01:11:13.729Z,6.30
2023-03-29T01:13:47.699Z,6.30
2023-03-29T01:16:20.186Z,6.20
2023-03-29T01:18:48.470Z,6.20
2023-03-29T01:21:23.442Z,6.20
2023-03-29T01:24:07.706Z,6.20
2023-03-29T01:26:46.736Z,6.20
2023-03-29T01:29:21.350Z,6.20
2023-03-29T01:31:53.755Z,6.20
2023-03-29T01:34:27.367Z,6.20
2023-03-29T01:37:04.316Z,6.20
2023-03-29T01:39:34.234Z,6.20
2023-03-29T01:42:17.008Z,6.20
2023-03-29T01:44:53.466Z,6.20
2023-03-29T01:47:30.909Z,6.20
2023-03-29T01:50:07.538Z,6.20
2023-03-29T01:52:39.162Z,6.20
2023-03-29T01:55:12.264Z,6.20
2023-03-29T01:57:43.866Z,6.20
2023-03-29T02:00:16.376Z,6.20
2023-03-29T02:02:47.258Z,6.20
2023-03-29T02:05:17.262Z,6.20
2023-03-29T02:07:47.076Z,6.20
2023-03-29T02:10:17.435Z,6.20
2023-03-29T02:12:45.629Z,6.10
2023-03-29T02:15:18.509Z,6.20
2023-03-29T02:17:46.850Z,6.20
2023-03-29T02:20:20.961Z,6.20
2023-03-29T02:22:55.118Z,6.20
2023-03-29T02:25:24.519Z,6.20
2023-03-29T02:27:53.253Z,6.20
2023-03-29T02:30:23.584Z,6.20
2023-03-29T02:32:59.436Z,6.20
2023-03-29T02:35:34.997Z,6.20
2023-03-29T02:38:05.793Z,6.20
2023-03-29T02:40:34.819Z,6.20
2023-03-29T02:43:04.068Z,6.20
2023-03-29T02:45:34.630Z,6.20
2023-03-29T02:48:06.664Z,6.20
2023-03-29T02:50:38.572Z,6.20
2023-03-29T02:53:11.518Z,6.20
2023-03-29T02:55:40.264Z,6.20
2023-03-29T02:58:08.728Z,6.20
2023-03-29T03:00:41.055Z,6.20
2023-03-29T03:03:10.319Z,6.20
2023-03-29T03:05:39.061Z,6.20
2023-03-29T03:08:08.301Z,6.10
2023-03-29T03:10:37.116Z,6.10
2023-03-29T03:13:05.305Z,6.10
2023-03-29T03:15:35.695Z,6.10
2023-03-29T03:18:05.630Z,6.10
2023-03-29T03:20:33.648Z,6.10
2023-03-29T03:23:03.365Z,6.00
2023-03-29T03:25:32.310Z,6.00
2023-03-29T03:28:00.312Z,5.90
2023-03-29T03:30:28.792Z,5.90
2023-03-29T03:32:56.817Z,5.90
2023-03-29T03:35:26.288Z,5.90
2023-03-29T03:37:54.416Z,5.90
2023-03-29T03:40:22.610Z,5.90
2023-03-29T03:42:50.612Z,5.80
2023-03-29T03:45:18.753Z,5.80
2023-03-29T03:47:46.822Z,5.80
2023-03-29T03:50:14.870Z,5.80
2023-03-29T03:52:44.216Z,5.80
2023-03-29T03:55:12.358Z,5.80
2023-03-29T03:57:42.461Z,5.80
2023-03-29T04:00:20.028Z,5.80
2023-03-29T04:02:49.144Z,5.80
2023-03-29T04:05:17.594Z,5.80
2023-03-29T04:07:47.521Z,5.80
2023-03-29T04:10:15.767Z,5.80
2023-03-29T04:12:43.948Z,5.80
2023-03-29T04:15:12.997Z,5.80
2023-03-29T04:17:41.056Z,5.80
2023-03-29T04:20:12.303Z,5.90
2023-03-29T04:22:40.525Z,5.90
2023-03-29T04:25:11.798Z,5.90
2023-03-29T04:27:39.913Z,5.90
2023-03-29T04:30:09.508Z,5.80
2023-03-29T04:32:37.846Z,5.90
2023-03-29T04:35:06.600Z,5.90
2023-03-29T04:37:34.737Z,5.90
2023-03-29T04:40:04.567Z,5.90
2023-03-29T04:42:34.231Z,5.90
2023-03-29T04:45:02.269Z,5.90
2023-03-29T04:47:31.232Z,5.90
2023-03-29T04:49:59.296Z,5.90
2023-03-29T04:52:27.462Z,5.90
2023-03-29T04:54:55.761Z,5.90
2023-03-29T04:57:23.849Z,5.90
2023-03-29T04:59:53.238Z,5.90
2023-03-29T05:02:22.002Z,5.90
2023-03-29T05:04:50.493Z,5.80
2023-03-29T05:07:19.433Z,5.80
2023-03-29T05:09:47.444Z,5.80
2023-03-29T05:12:16.088Z,5.80
2023-03-29T05:14:44.043Z,5.80
2023-03-29T05:17:13.765Z,5.80
2023-03-29T05:19:43.337Z,5.80
2023-03-29T05:22:11.302Z,5.90
2023-03-29T05:24:39.282Z,5.90
2023-03-29T05:27:07.429Z,5.90
2023-03-29T05:29:35.382Z,6.00
2023-03-29T05:32:03.509Z,6.00
2023-03-29T05:34:32.890Z,6.10
2023-03-29T05:37:01.504Z,6.10
2023-03-29T05:39:29.580Z,6.20
2023-03-29T05:41:57.540Z,6.20
2023-03-29T05:44:26.953Z,6.20
2023-03-29T05:46:54.936Z,6.20
2023-03-29T05:49:22.933Z,6.20
2023-03-29T05:51:52.439Z,6.20
2023-03-29T05:54:20.665Z,6.20
2023-03-29T05:56:48.673Z,6.20
2023-03-29T05:59:17.575Z,6.20
2023-03-29T06:01:46.951Z,6.20
2023-03-29T06:04:15.498Z,6.30
2023-03-29T06:06:43.646Z,6.40
2023-03-29T06:09:13.040Z,6.40
2023-03-29T06:11:41.002Z,6.50
2023-03-29T06:14:09.032Z,6.50
2023-03-29T06:16:37.751Z,6.60
2023-03-29T06:19:06.749Z,6.60
2023-03-29T06:21:35.011Z,6.60
2023-03-29T06:24:04.088Z,6.70
2023-03-29T06:26:33.622Z,6.70
2023-03-29T06:29:01.597Z,6.80
2023-03-29T06:31:30.103Z,6.90
2023-03-29T06:33:58.753Z,7.00
2023-03-29T06:36:26.855Z,7.10
2023-03-29T06:38:55.429Z,7.10
2023-03-29T06:41:23.784Z,7.20
2023-03-29T06:43:53.573Z,7.30
2023-03-29T06:46:21.524Z,7.30
2023-03-29T06:48:49.536Z,7.40
2023-03-29T06:51:17.521Z,7.40
2023-03-29T06:53:45.468Z,7.50
2023-03-29T06:56:13.464Z,7.50
2023-03-29T06:58:41.868Z,7.50
2023-03-29T07:01:11.472Z,7.50
2023-03-29T07:03:39.791Z,7.60
2023-03-29T07:06:11.668Z,7.70
2023-03-29T07:08:43.673Z,7.70
2023-03-29T07:11:13.870Z,7.90
2023-03-29T07:13:42.543Z,8.00
2023-03-29T07:16:15.275Z,8.00
2023-03-29T07:18:44.734Z,8.10
2023-03-29T07:21:13.778Z,8.20
2023-03-29T07:23:42.310Z,8.30
2023-03-29T07:26:11.136Z,8.40
2023-03-29T07:28:39.335Z,8.50
2023-03-29T07:31:11.139Z,8.60
2023-03-29T07:33:40.901Z,8.60
2023-03-29T07:36:09.857Z,8.70
2023-03-29T07:38:38.550Z,8.70
2023-03-29T07:41:08.084Z,8.80
2023-03-29T07:43:36.683Z,8.80
2023-03-29T07:46:06.767Z,8.90
2023-03-29T07:48:36.321Z,8.90
2023-03-29T07:51:06.440Z,9.00
2023-03-29T07:53:34.500Z,9.10
2023-03-29T07:56:02.746Z,9.10
2023-03-29T07:58:30.729Z,9.10
2023-03-29T08:01:01.345Z,9.10
2023-03-29T08:03:29.649Z,9.10
2023-03-29T08:05:57.639Z,9.20
2023-03-29T08:08:26.944Z,9.20
2023-03-29T08:10:55.048Z,9.30
2023-03-29T08:13:23.332Z,9.30
2023-03-29T08:15:51.579Z,9.40
2023-03-29T08:18:19.553Z,9.40
2023-03-29T08:20:47.584Z,9.30
2023-03-29T08:23:15.832Z,9.30
2023-03-29T08:25:47.064Z,9.30
2023-03-29T08:28:15.133Z,9.30
2023-03-29T08:30:43.310Z,9.20
2023-03-29T08:33:11.345Z,9.20
2023-03-29T08:35:39.469Z,9.20
2023-03-29T08:38:08.232Z,9.20
2023-03-29T08:40:36.791Z,9.20
2023-03-29T08:43:22.618Z,9.30
2023-03-29T08:46:00.983Z,9.30
2023-03-29T08:48:32.192Z,9.40
2023-03-29T08:51:05.193Z,9.50
2023-03-29T08:53:40.131Z,9.50
2023-03-29T08:56:13.644Z,9.50
2023-03-29T08:58:43.532Z,9.50
2023-03-29T09:01:12.154Z,9.60
2023-03-29T09:03:43.969Z,9.60
2023-03-29T09:06:13.893Z,9.70
2023-03-29T09:08:44.952Z,9.80
2023-03-29T09:11:29.921Z,9.90
2023-03-29T09:14:10.094Z,10.00
2023-03-29T09:16:46.637Z,10.30
2023-03-29T09:19:27.712Z,10.50
2023-03-29T09:22:04.207Z,10.80
2023-03-29T09:24:45.406Z,11.10
2023-03-29T09:27:19.735Z,11.30
2023-03-29T09:30:13.576Z,11.40
2023-03-29T09:32:50.877Z,11.40
2023-03-29T09:35:23.649Z,11.40
2023-03-29T09:37:54.401Z,11.50
2023-03-29T09:40:27.114Z,11.60
2023-03-29T09:42:56.281Z,11.70
2023-03-29T09:45:25.830Z,11.80
2023-03-29T09:47:57.660Z,11.90
2023-03-29T09:50:31.978Z,11.90
2023-03-29T09:53:01.043Z,11.90
2023-03-29T09:55:32.309Z,11.90
2023-03-29T09:58:03.009Z,12.00
2023-03-29T10:00:32.436Z,12.00
2023-03-29T10:03:00.730Z,12.00
2023-03-29T10:05:33.225Z,12.00
2023-03-29T10:08:02.531Z,12.00
2023-03-29T10:10:34.456Z,12.10
2023-03-29T10:13:06.880Z,12.10
2023-03-29T10:15:37.023Z,12.10
2023-03-29T10:18:10.942Z,12.20
2023-03-29T10:20:41.066Z,12.10
2023-03-29T10:23:10.379Z,12.10
2023-03-29T10:25:42.651Z,12.00
2023-03-29T10:28:17.591Z,12.00
2023-03-29T10:30:53.443Z,12.00
2023-03-29T10:33:25.037Z,12.00
2023-03-29T10:35:53.262Z,12.00
2023-03-29T10:38:23.987Z,12.10
2023-03-29T10:40:53.690Z,12.10
2023-03-29T10:43:29.681Z,12.20
2023-03-29T10:46:08.795Z,12.30
2023-03-29T10:48:37.280Z,12.40
2023-03-29T10:51:07.517Z,12.40
2023-03-29T10:53:38.123Z,12.50
2023-03-29T10:56:29.438Z,12.50
2023-03-29T10:59:15.728Z,12.70
2023-03-29T11:01:58.859Z,12.90
2023-03-29T11:04:35.362Z,13.10
2023-03-29T11:07:23.313Z,13.30
2023-03-29T11:10:00.271Z,13.40
2023-03-29T11:12:32.091Z,13.50
2023-03-29T11:15:14.557Z,13.60
2023-03-29T11:17:53.689Z,13.60
2023-03-29T11:20:30.035Z,13.70
2023-03-29T11:23:08.381Z,13.70
2023-03-29T11:25:50.277Z,13.70
2023-03-29T11:28:26.327Z,13.80
2023-03-29T11:31:03.864Z,13.90
2023-03-29T11:33:46.012Z,14.00
2023-03-29T11:36:18.310Z,14.00
2023-03-29T11:38:59.823Z,14.10
2023-03-29T11:41:31.327Z,14.20
2023-03-29T11:44:04.316Z,14.40
2023-03-29T11:46:37.746Z,14.60
2023-03-29T11:49:14.896Z,14.60
2023-03-29T11:51:47.015Z,14.60
2023-03-29T11:54:20.378Z,14.70
2023-03-29T11:56:53.274Z,14.80
2023-03-29T11:59:25.831Z,14.90
2023-03-29T12:01:57.424Z,15.10
2023-03-29T12:04:32.927Z,15.20
2023-03-29T12:07:10.357Z,15.30
2023-03-29T12:09:42.223Z,15.40
2023-03-29T12:12:17.549Z,15.50
2023-03-29T12:14:55.584Z,15.50
2023-03-29T12:17:29.197Z,15.60
2023-03-29T12:20:07.437Z,15.60
2023-03-29T12:22:35.483Z,15.60
2023-03-29T12:25:06.334Z,15.70
2023-03-29T12:27:41.766Z,15.70
2023-03-29T12:30:34.392Z,15.70
2023-03-29T12:33:27.733Z,15.70
2023-03-29T12:36:16.338Z,15.60
2023-03-29T12:38:48.056Z,15.60
2023-03-29T12:41:19.016Z,15.70
2023-03-29T12:43:48.109Z,15.80
2023-03-29T12:46:19.023Z,16.00
2023-03-29T12:48:50.319Z,16.00
2023-03-29T12:51:22.852Z,15.90
2023-03-29T12:53:52.807Z,15.80
2023-03-29T12:56:23.611Z,15.70
2023-03-29T12:58:55.972Z,15.60
2023-03-29T13:01:31.534Z,15.70
2023-03-29T13:04:18.669Z,15.80
2023-03-29T13:07:04.258Z,15.90
2023-03-29T13:09:47.839Z,16.00
2023-03-29T13:12:25.583Z,16.10
2023-03-29T13:14:56.616Z,16.20
2023-03-29T13:17:28.996Z,16.30
2023-03-29T13:20:25.417Z,16.30
2023-03-29T13:23:08.242Z,16.20
2023-03-29T13:25:48.290Z,16.10
2023-03-29T13:28:22.362Z,16.00
2023-03-29T13:30:59.272Z,15.90
2023-03-29T13:33:50.688Z,15.90
2023-03-29T13:36:33.087Z,15.80
2023-03-29T13:39:05.508Z,15.70
2023-03-29T13:41:44.648Z,15.60
2023-03-29T13:44:27.399Z,15.60
2023-03-29T13:47:17.466Z,15.50
2023-03-29T13:49:51.644Z,15.40
2023-03-29T13:52:25.594Z,15.30
2023-03-29T13:55:00.734Z,15.30
2023-03-29T13:57:36.101Z,15.20
2023-03-29T14:00:11.821Z,15.10
2023-03-29T14:02:46.607Z,15.00
2023-03-29T14:05:20.072Z,15.00
2023-03-29T14:07:53.441Z,15.00
2023-03-29T14:10:26.847Z,15.10
2023-03-29T14:12:55.826Z,15.10
2023-03-29T14:15:25.608Z,15.10
2023-03-29T14:18:00.338Z,15.10
2023-03-29T14:20:29.665Z,15.10
2023-03-29T14:22:57.656Z,15.10
2023-03-29T14:25:29.732Z,15.10
2023-03-29T14:27:57.861Z,15.10
2023-03-29T14:30:29.048Z,15.10
2023-03-29T14:32:57.362Z,15.10
2023-03-29T14:35:31.289Z,15.10
2023-03-29T14:38:00.281Z,15.00
2023-03-29T14:40:32.140Z,15.00
2023-03-29T14:43:05.329Z,14.90
2023-03-29T14:45:33.610Z,14.90
2023-03-29T14:48:02.249Z,14.90
2023-03-29T14:50:31.920Z,14.90
2023-03-29T14:53:01.409Z,14.90
2023-03-29T14:55:31.130Z,14.80
2023-03-29T14:58:00.204Z,14.90
2023-03-29T15:00:33.714Z,14.80
2023-03-29T15:03:03.290Z,14.80
2023-03-29T15:05:38.145Z,14.70
2023-03-29T15:08:09.915Z,14.70
2023-03-29T15:10:43.000Z,14.60
2023-03-29T15:13:19.391Z,14.60
2023-03-29T15:15:47.662Z,14.50
2023-03-29T15:18:17.668Z,14.50
2023-03-29T15:20:46.482Z,14.50
2023-03-29T15:23:24.050Z,14.50
2023-03-29T15:25:58.530Z,14.60
2023-03-29T15:28:30.842Z,14.50
2023-03-29T15:31:07.770Z,14.50
2023-03-29T15:33:38.342Z,14.40
2023-03-29T15:36:08.246Z,14.40
2023-03-29T15:38:43.854Z,14.40
2023-03-29T15:41:15.445Z,14.40
2023-03-29T15:43:44.039Z,14.40
2023-03-29T15:46:13.381Z,14.40
2023-03-29T15:48:41.750Z,14.40
2023-03-29T15:51:11.549Z,14.50
2023-03-29T15:53:39.595Z,14.50
2023-03-29T15:56:11.370Z,14.60
2023-03-29T15:58:40.950Z,14.60
2023-03-29T16:01:19.352Z,14.60
2023-03-29T16:03:48.186Z,14.50
2023-03-29T16:06:17.410Z,14.50
2023-03-29T16:08:46.026Z,14.40
2023-03-29T16:11:14.086Z,14.40
2023-03-29T16:13:43.556Z,14.40
2023-03-29T16:16:12.347Z,14.40
2023-03-29T16:18:40.536Z,14.30
2023-03-29T16:21:12.751Z,14.40
2023-03-29T16:23:40.802Z,14.30
2023-03-29T16:26:09.429Z,14.30
2023-03-29T16:28:37.748Z,14.20
2023-03-29T16:31:07.609Z,14.20
2023-03-29T16:33:35.774Z,14.20
2023-03-29T16:36:03.952Z,14.20
2023-03-29T16:38:33.770Z,14.20
2023-03-29T16:41:01.864Z,14.20
2023-03-29T16:43:29.917Z,14.20
2023-03-29T16:45:58.055Z,14.20
2023-03-29T16:48:27.728Z,14.10
2023-03-29T16:50:55.775Z,14.10
2023-03-29T16:53:23.970Z,14.10
2023-03-29T16:55:51.920Z,14.10
2023-03-29T16:58:20.026Z,14.10
2023-03-29T17:00:48.524Z,14.00
2023-03-29T17:03:17.085Z,13.90
2023-03-29T17:05:50.243Z,13.90
2023-03-29T17:08:18.551Z,13.80
2023-03-29T17:10:48.421Z,13.80
2023-03-29T17:13:16.446Z,13.80
2023-03-29T17:15:44.515Z,13.80
2023-03-29T17:18:13.952Z,13.80
2023-03-29T17:20:41.988Z,13.80
2023-03-29T17:23:11.448Z,13.80
2023-03-29T17:25:39.484Z,13.80
2023-03-29T17:28:07.514Z,13.80
2023-03-29T17:30:36.371Z,13.80
2023-03-29T17:33:05.093Z,13.70
2023-03-29T17:35:33.532Z,13.70
2023-03-29T17:38:02.891Z,13.70
2023-03-29T17:40:32.239Z,13.60
2023-03-29T17:43:00.509Z,13.60
2023-03-29T17:45:28.700Z,13.60
2023-03-29T17:47:56.740Z,13.60
2023-03-29T17:50:24.796Z,13.60
2023-03-29T17:52:52.782Z,13.60
2023-03-29T17:55:21.371Z,13.50
2023-03-29T17:57:51.649Z,13.50
2023-03-29T18:00:20.359Z,13.50
2023-03-29T18:02:48.422Z,13.50
2023-03-29T18:05:16.650Z,13.40
2023-03-29T18:07:44.638Z,13.40
2023-03-29T18:10:12.771Z,13.40
2023-03-29T18:12:40.796Z,13.40
2023-03-29T18:15:11.631Z,13.40
2023-03-29T18:17:39.844Z,13.40
2023-03-29T18:20:11.738Z,13.40
2023-03-29T18:22:40.100Z,13.40
2023-03-29T18:25:09.513Z,13.30
2023-03-29T18:27:37.923Z,13.30
2023-03-29T18:30:08.554Z,13.30
2023-03-29T18:32:38.083Z,13.30
2023-03-29T18:35:06.869Z,13.30
2023-03-29T18:37:34.874Z,13.30
2023-03-29T18:40:04.681Z,13.30
2023-03-29T18:42:32.670Z,13.30
2023-03-29T18:45:00.858Z,13.30
2023-03-29T18:47:29.034Z,13.30
2023-03-29T18:49:58.697Z,13.30
2023-03-29T18:52:27.670Z,13.30
2023-03-29T18:54:55.866Z,13.30
2023-03-29T18:57:23.980Z,13.30
2023-03-29T18:59:52.038Z,13.30
2023-03-29T19:02:20.109Z,13.20
2023-03-29T19:04:48.448Z,13.20
2023-03-29T19:07:18.876Z,13.20
2023-03-29T19:09:46.856Z,13.20
2023-03-29T19:12:14.804Z,13.30
2023-03-29T19:14:42.768Z,13.30
2023-03-29T19:17:10.750Z,13.30
2023-03-29T19:19:38.816Z,13.30
2023-03-29T19:22:06.877Z,13.20
2023-03-29T19:24:36.221Z,13.20
2023-03-29T19:27:04.389Z,13.20
2023-03-29T19:29:32.347Z,13.20
2023-03-29T19:32:00.408Z,13.20
2023-03-29T19:34:29.554Z,13.20
2023-03-29T19:36:58.476Z,13.20
2023-03-29T19:39:29.303Z,13.20
2023-03-29T19:41:58.857Z,13.20
2023-03-29T19:44:28.094Z,13.20
2023-03-29T19:46:56.078Z,13.20
2023-03-29T19:49:24.092Z,13.20
2023-03-29T19:51:54.469Z,13.20
2023-03-29T19:54:23.430Z,13.20
2023-03-29T19:56:52.533Z,13.20
2023-03-29T19:59:22.708Z,13.20
2023-03-29T20:01:51.829Z,13.10
2023-03-29T20:04:20.805Z,13.10
2023-03-29T20:06:49.344Z,13.10
2023-03-29T20:09:17.460Z,13.00
2023-03-29T20:11:46.704Z,13.00
2023-03-29T20:14:15.120Z,13.00
2023-03-29T20:16:45.689Z,13.00
2023-03-29T20:19:17.745Z,13.00
2023-03-29T20:21:46.058Z,13.00
2023-03-29T20:24:14.245Z,13.00
2023-03-29T20:26:42.216Z,13.00
2023-03-29T20:29:11.751Z,13.00
2023-03-29T20:31:39.760Z,13.00
2023-03-29T20:34:09.327Z,13.00
2023-03-29T20:36:37.776Z,13.00
2023-03-29T20:39:07.752Z,13.00
2023-03-29T20:41:38.252Z,13.00
2023-03-29T20:44:06.480Z,13.00
2023-03-29T20:46:34.845Z,13.00
2023-03-29T20:49:04.574Z,13.00
2023-03-29T20:51:34.096Z,13.00
2023-03-29T20:54:04.530Z,13.00
2023-03-29T20:56:34.321Z,13.00
2023-03-29T20:59:03.889Z,13.00
2023-03-29T21:01:32.026Z,13.00
2023-03-29T21:04:00.095Z,13.00
2023-03-29T21:06:28.145Z,13.00
2023-03-29T21:08:57.490Z,13.00
2023-03-29T21:11:25.641Z,13.00
2023-03-29T21:13:53.877Z,13.00
2023-03-29T21:16:22.052Z,13.00
2023-03-29T21:18:50.096Z,13.00
2023-03-29T21:21:18.045Z,13.00
2023-03-29T21:23:46.061Z,13.00
2023-03-29T21:26:15.545Z,13.00
2023-03-29T21:28:43.540Z,12.90
2023-03-29T21:31:11.529Z,12.90
2023-03-29T21:33:39.559Z,12.90
2023-03-29T21:36:08.302Z,12.90
2023-03-29T21:38:36.574Z,12.90
2023-03-29T21:41:04.808Z,12.90
2023-03-29T21:43:34.246Z,12.90
2023-03-29T21:46:02.234Z,12.90
2023-03-29T21:48:30.228Z,12.90
2023-03-29T21:50:58.293Z,12.90
2023-03-29T21:53:27.027Z,12.90
2023-03-29T21:55:55.433Z,12.80
2023-03-29T21:58:23.445Z,12.80
2023-03-29T22:00:52.918Z,12.80
2023-03-29T22:03:21.052Z,12.80
2023-03-29T22:05:57.612Z,12.80
2023-03-29T22:08:26.259Z,12.80
2023-03-29T22:10:56.958Z,12.80
2023-03-29T22:13:26.152Z,12.80
2023-03-29T22:16:00.180Z,12.90
2023-03-29T22:18:30.096Z,12.90
2023-03-29T22:20:58.246Z,12.90
2023-03-29T22:23:26.228Z,13.00
2023-03-29T22:25:54.213Z,13.00
2023-03-29T22:28:22.232Z,13.00
2023-03-29T22:30:50.227Z,13.00
2023-03-29T22:33:19.603Z,13.00
2023-03-29T22:35:47.640Z,13.10
2023-03-29T22:38:15.825Z,13.00
2023-03-29T22:40:43.888Z,13.00
2023-03-29T22:43:11.862Z,13.00
2023-03-29T22:45:39.820Z,13.00
2023-03-29T22:48:08.094Z,12.90
2023-03-29T22:50:37.635Z,12.90
2023-03-29T22:53:05.970Z,12.90
2023-03-29T22:55:34.132Z,12.80
2023-03-29T22:58:02.139Z,12.90
2023-03-29T23:00:30.114Z,12.90
2023-03-29T23:02:58.444Z,12.90
2023-03-29T23:05:26.518Z,12.90
2023-03-29T23:07:56.159Z,12.90
2023-03-29T23:10:28.781Z,12.90
2023-03-29T23:13:08.375Z,12.90
2023-03-29T23:15:37.252Z,12.80
2023-03-29T23:18:06.495Z,12.80
2023-03-29T23:20:34.487Z,12.80
2023-03-29T23:23:04.026Z,12.80
2023-03-29T23:25:32.053Z,12.80
2023-03-29T23:28:00.051Z,12.90
2023-03-29T23:30:29.661Z,12.80
2023-03-29T23:32:58.226Z,12.90
2023-03-29T23:35:26.386Z,12.90
2023-03-29T23:37:54.412Z,12.90
2023-03-29T23:40:24.361Z,12.90
2023-03-29T23:42:53.020Z,13.00
2023-03-29T23:45:20.985Z,13.00
2023-03-29T23:47:49.935Z,13.00
2023-03-29T23:50:18.250Z,13.00
2023-03-29T23:52:47.259Z,13.00
2023-03-29T23:55:16.058Z,13.00
2023-03-29T23:57:45.431Z,13.00
